sensor_id;sensor_type;location;lat;lon;timestamp;temperature;humidity
3086;DHT22;52812;48.960;9.108;2023-04-10T00:00:45;3.80;99.90
3086;DHT22;52812;48.960;9.108;2023-04-10T00:03:12;3.80;99.90
3086;DHT22;52812;48.960;9.108;2023-04-10T00:05:37;3.80;99.90
3086;DHT22;52812;48.960;9.108;2023-04-10T00:08:03;3.90;99.90
3086;DHT22;52812;48.960;9.108;2023-04-10T00:10:29;3.90;99.90
3086;DHT22;52812;48.960;9.108;2023-04-10T00:12:56;3.80;99.90
3086;DHT22;52812;48.960;9.108;2023-04-10T00:15:23;3.90;99.90
3086;DHT22;52812;48.960;9.108;2023-04-10T00:17:48;4.00;99.90
3086;DHT22;52812;48.960;9.108;2023-04-10T00:20:19;4.10;99.90
3086;DHT22;52812;48.960;9.108;2023-04-10T00:22:45;4.20;99.90
3086;DHT22;52812;48.960;9.108;2023-04-10T00:25:11;4.30;99.90
3086;DHT22;52812;48.960;9.108;2023-04-10T00:27:36;4.40;99.90
3086;DHT22;52812;48.960;9.108;2023-04-10T00:30:02;4.40;99.90
3086;DHT22;52812;48.960;9.108;2023-04-10T00:32:28;4.40;99.90
3086;DHT22;52812;48.960;9.108;2023-04-10T00:34:53;4.40;99.90
3086;DHT22;52812;48.960;9.108;2023-04-10T00:37:19;4.40;99.90
3086;DHT22;52812;48.960;9.108;2023-04-10T00:39:44;4.30;99.90
3086;DHT22;52812;48.960;9.108;2023-04-10T00:42:10;4.10;99.90
3086;DHT22;52812;48.960;9.108;2023-04-10T00:44:36;4.10;99.90
3086;DHT22;52812;48.960;9.108;2023-04-10T00:47:06;4.00;99.90
3086;DHT22;52812;48.960;9.108;2023-04-10T00:49:32;4.00;99.90
3086;DHT22;52812;48.960;9.108;2023-04-10T00:51:58;4.10;99.90
3086;DHT22;52812;48.960;9.108;2023-04-10T00:54:25;4.10;99.90
3086;DHT22;52812;48.960;9.108;2023-04-10T00:56:51;4.20;99.90
3086;DHT22;52812;48.960;9.108;2023-04-10T00:59:17;4.20;99.90
3086;DHT22;52812;48.960;9.108;2023-04-10T01:01:42;4.10;99.90
3086;DHT22;52812;48.960;9.108;2023-04-10T01:04:08;4.00;99.90
3086;DHT22;52812;48.960;9.108;2023-04-10T01:07:03;3.80;99.90
3086;DHT22;52812;48.960;9.108;2023-04-10T01:09:54;3.60;99.90
3086;DHT22;52812;48.960;9.108;2023-04-10T01:15:03;3.10;99.90
3086;DHT22;52812;48.960;9.108;2023-04-10T01:17:49;2.90;99.90
3086;DHT22;52812;48.960;9.108;2023-04-10T01:20:23;2.90;99.90
3086;DHT22;52812;48.960;9.108;2023-04-10T01:23:20;2.90;99.90
3086;DHT22;52812;48.960;9.108;2023-04-10T01:25:55;2.90;99.90
3086;DHT22;52812;48.960;9.108;2023-04-10T01:31:09;3.00;99.90
3086;DHT22;52812;48.960;9.108;2023-04-10T01:33:43;2.90;99.90
3086;DHT22;52812;48.960;9.108;2023-04-10T01:36:11;2.70;99.90
3086;DHT22;52812;48.960;9.108;2023-04-10T01:38:39;2.60;99.90
3086;DHT22;52812;48.960;9.108;2023-04-10T01:41:07;2.60;99.90
3086;DHT22;52812;48.960;9.108;2023-04-10T01:43:33;2.60;99.90
3086;DHT22;52812;48.960;9.108;2023-04-10T01:46:00;2.50;99.90
3086;DHT22;52812;48.960;9.108;2023-04-10T01:48:27;2.40;99.90
3086;DHT22;52812;48.960;9.108;2023-04-10T01:50:54;2.40;99.90
3086;DHT22;52812;48.960;9.108;2023-04-10T01:53:21;2.40;99.90
3086;DHT22;52812;48.960;9.108;2023-04-10T01:55:48;2.40;99.90
3086;DHT22;52812;48.960;9.108;2023-04-10T01:58:14;2.50;99.90
3086;DHT22;52812;48.960;9.108;2023-04-10T02:00:41;2.40;99.90
3086;DHT22;52812;48.960;9.108;2023-04-10T02:03:07;2.30;99.90
3086;DHT22;52812;48.960;9.108;2023-04-10T02:05:45;2.30;99.90
3086;DHT22;52812;48.960;9.108;2023-04-10T02:08:18;2.20;99.90
3086;DHT22;52812;48.960;9.108;2023-04-10T02:10:57;2.20;99.90
3086;DHT22;52812;48.960;9.108;2023-04-10T02:13:26;2.20;99.90
3086;DHT22;52812;48.960;9.108;2023-04-10T02:15:55;2.20;99.90
3086;DHT22;52812;48.960;9.108;2023-04-10T02:18:24;2.20;99.90
3086;DHT22;52812;48.960;9.108;2023-04-10T02:20:51;2.20;99.90
3086;DHT22;52812;48.960;9.108;2023-04-10T02:23:18;2.20;99.90
3086;DHT22;52812;48.960;9.108;2023-04-10T02:25:44;2.20;99.90
3086;DHT22;52812;48.960;9.108;2023-04-10T02:28:10;2.20;99.90
3086;DHT22;52812;48.960;9.108;2023-04-10T02:30:36;2.10;99.90
3086;DHT22;52812;48.960;9.108;2023-04-10T02:33:01;2.00;99.90
3086;DHT22;52812;48.960;9.108;2023-04-10T02:35:27;2.00;99.90
3086;DHT22;52812;48.960;9.108;2023-04-10T02:37:53;1.90;99.90
3086;DHT22;52812;48.960;9.108;2023-04-10T02:40:19;1.90;99.90
3086;DHT22;52812;48.960;9.108;2023-04-10T02:42:45;1.90;99.90
3086;DHT22;52812;48.960;9.108;2023-04-10T02:45:10;1.90;99.90
3086;DHT22;52812;48.960;9.108;2023-04-10T02:47:36;1.80;99.90
3086;DHT22;52812;48.960;9.108;2023-04-10T02:50:01;1.70;99.90
3086;DHT22;52812;48.960;9.108;2023-04-10T02:52:27;1.70;99.90
3086;DHT22;52812;48.960;9.108;2023-04-10T02:54:52;1.70;99.90
3086;DHT22;52812;48.960;9.108;2023-04-10T02:57:19;1.80;99.90
3086;DHT22;52812;48.960;9.108;2023-04-10T02:59:49;1.80;99.90
3086;DHT22;52812;48.960;9.108;2023-04-10T03:02:15;1.70;99.90
3086;DHT22;52812;48.960;9.108;2023-04-10T03:04:41;1.70;99.90
3086;DHT22;52812;48.960;9.108;2023-04-10T03:07:07;1.70;99.90
3086;DHT22;52812;48.960;9.108;2023-04-10T03:09:33;1.70;99.90
3086;DHT22;52812;48.960;9.108;2023-04-10T03:11:58;1.60;99.90
3086;DHT22;52812;48.960;9.108;2023-04-10T03:14:24;1.60;99.90
3086;DHT22;52812;48.960;9.108;2023-04-10T03:16:50;1.50;99.90
3086;DHT22;52812;48.960;9.108;2023-04-10T03:19:16;1.50;99.90
3086;DHT22;52812;48.960;9.108;2023-04-10T03:21:41;1.50;99.90
3086;DHT22;52812;48.960;9.108;2023-04-10T03:24:07;1.40;99.90
3086;DHT22;52812;48.960;9.108;2023-04-10T03:26:32;1.50;99.90
3086;DHT22;52812;48.960;9.108;2023-04-10T03:28:58;1.50;99.90
3086;DHT22;52812;48.960;9.108;2023-04-10T03:31:24;1.50;99.90
3086;DHT22;52812;48.960;9.108;2023-04-10T03:33:49;1.50;99.90
3086;DHT22;52812;48.960;9.108;2023-04-10T03:36:15;1.50;99.90
3086;DHT22;52812;48.960;9.108;2023-04-10T03:38:41;1.50;99.90
3086;DHT22;52812;48.960;9.108;2023-04-10T03:41:06;1.50;99.90
3086;DHT22;52812;48.960;9.108;2023-04-10T03:43:32;1.40;99.90
3086;DHT22;52812;48.960;9.108;2023-04-10T03:45:58;1.40;99.90
3086;DHT22;52812;48.960;9.108;2023-04-10T03:48:23;1.50;99.90
3086;DHT22;52812;48.960;9.108;2023-04-10T03:50:53;1.50;99.90
3086;DHT22;52812;48.960;9.108;2023-04-10T03:53:19;1.60;99.90
3086;DHT22;52812;48.960;9.108;2023-04-10T03:55:44;1.60;99.90
3086;DHT22;52812;48.960;9.108;2023-04-10T03:58:10;1.50;99.90
3086;DHT22;52812;48.960;9.108;2023-04-10T04:00:36;1.40;99.90
3086;DHT22;52812;48.960;9.108;2023-04-10T04:03:02;1.40;99.90
3086;DHT22;52812;48.960;9.108;2023-04-10T04:05:30;1.40;99.90
3086;DHT22;52812;48.960;9.108;2023-04-10T04:07:55;1.40;99.90
3086;DHT22;52812;48.960;9.108;2023-04-10T04:10:21;1.30;99.90
3086;DHT22;52812;48.960;9.108;2023-04-10T04:12:46;1.30;99.90
3086;DHT22;52812;48.960;9.108;2023-04-10T04:15:12;1.30;99.90
3086;DHT22;52812;48.960;9.108;2023-04-10T04:17:37;1.30;99.90
3086;DHT22;52812;48.960;9.108;2023-04-10T04:20:04;1.30;99.90
3086;DHT22;52812;48.960;9.108;2023-04-10T04:22:30;1.30;99.90
3086;DHT22;52812;48.960;9.108;2023-04-10T04:24:55;1.30;99.90
3086;DHT22;52812;48.960;9.108;2023-04-10T04:27:21;1.30;99.90
3086;DHT22;52812;48.960;9.108;2023-04-10T04:29:47;1.40;99.90
3086;DHT22;52812;48.960;9.108;2023-04-10T04:32:13;1.30;99.90
3086;DHT22;52812;48.960;9.108;2023-04-10T04:34:39;1.40;99.90
3086;DHT22;52812;48.960;9.108;2023-04-10T04:37:04;1.60;99.90
3086;DHT22;52812;48.960;9.108;2023-04-10T04:39:30;1.70;99.90
3086;DHT22;52812;48.960;9.108;2023-04-10T04:41:56;1.70;99.90
3086;DHT22;52812;48.960;9.108;2023-04-10T04:44:21;1.80;99.90
3086;DHT22;52812;48.960;9.108;2023-04-10T04:46:47;1.80;99.90
3086;DHT22;52812;48.960;9.108;2023-04-10T04:49:12;1.80;99.90
3086;DHT22;52812;48.960;9.108;2023-04-10T04:51:38;1.80;99.90
3086;DHT22;52812;48.960;9.108;2023-04-10T04:54:04;1.90;99.90
3086;DHT22;52812;48.960;9.108;2023-04-10T04:56:29;1.90;99.90
3086;DHT22;52812;48.960;9.108;2023-04-10T04:58:55;2.00;99.90
3086;DHT22;52812;48.960;9.108;2023-04-10T05:01:20;2.10;99.90
3086;DHT22;52812;48.960;9.108;2023-04-10T05:03:46;2.10;99.90
3086;DHT22;52812;48.960;9.108;2023-04-10T05:06:11;2.00;99.90
3086;DHT22;52812;48.960;9.108;2023-04-10T05:08:38;2.00;99.90
3086;DHT22;52812;48.960;9.108;2023-04-10T05:11:04;2.00;99.90
3086;DHT22;52812;48.960;9.108;2023-04-10T05:13:30;2.20;99.90
3086;DHT22;52812;48.960;9.108;2023-04-10T05:15:55;2.50;99.90
3086;DHT22;52812;48.960;9.108;2023-04-10T05:18:21;2.80;99.90
3086;DHT22;52812;48.960;9.108;2023-04-10T05:20:48;2.90;99.90
3086;DHT22;52812;48.960;9.108;2023-04-10T05:23:14;3.00;99.90
3086;DHT22;52812;48.960;9.108;2023-04-10T05:25:40;2.90;99.90
3086;DHT22;52812;48.960;9.108;2023-04-10T05:28:06;2.80;99.90
3086;DHT22;52812;48.960;9.108;2023-04-10T05:30:31;2.70;99.90
3086;DHT22;52812;48.960;9.108;2023-04-10T05:32:57;2.80;99.90
3086;DHT22;52812;48.960;9.108;2023-04-10T05:35:22;2.80;99.90
3086;DHT22;52812;48.960;9.108;2023-04-10T05:37:48;3.00;99.90
3086;DHT22;52812;48.960;9.108;2023-04-10T05:40:13;3.10;99.90
3086;DHT22;52812;48.960;9.108;2023-04-10T05:42:39;3.30;99.90
3086;DHT22;52812;48.960;9.108;2023-04-10T05:45:05;3.50;99.90
3086;DHT22;52812;48.960;9.108;2023-04-10T05:47:31;3.70;99.90
3086;DHT22;52812;48.960;9.108;2023-04-10T05:49:56;4.00;99.90
3086;DHT22;52812;48.960;9.108;2023-04-10T05:52:22;4.30;99.90
3086;DHT22;52812;48.960;9.108;2023-04-10T05:54:47;4.50;99.90
3086;DHT22;52812;48.960;9.108;2023-04-10T05:57:14;4.90;99.90
3086;DHT22;52812;48.960;9.108;2023-04-10T05:59:40;5.10;99.90
3086;DHT22;52812;48.960;9.108;2023-04-10T06:02:06;5.20;99.90
3086;DHT22;52812;48.960;9.108;2023-04-10T06:04:31;5.30;99.90
3086;DHT22;52812;48.960;9.108;2023-04-10T06:06:57;5.20;99.90
3086;DHT22;52812;48.960;9.108;2023-04-10T06:09:22;5.30;99.90
3086;DHT22;52812;48.960;9.108;2023-04-10T06:11:48;5.30;99.90
3086;DHT22;52812;48.960;9.108;2023-04-10T06:14:13;5.40;99.90
3086;DHT22;52812;48.960;9.108;2023-04-10T06:16:39;5.50;99.90
3086;DHT22;52812;48.960;9.108;2023-04-10T06:19:05;5.60;99.90
3086;DHT22;52812;48.960;9.108;2023-04-10T06:21:31;5.70;99.90
3086;DHT22;52812;48.960;9.108;2023-04-10T06:23:56;5.70;99.90
3086;DHT22;52812;48.960;9.108;2023-04-10T06:26:23;5.80;99.90
3086;DHT22;52812;48.960;9.108;2023-04-10T06:28:49;5.80;99.90
3086;DHT22;52812;48.960;9.108;2023-04-10T06:31:18;6.00;99.90
3086;DHT22;52812;48.960;9.108;2023-04-10T06:33:44;6.20;99.90
3086;DHT22;52812;48.960;9.108;2023-04-10T06:36:09;6.50;99.90
3086;DHT22;52812;48.960;9.108;2023-04-10T06:38:35;6.80;99.90
3086;DHT22;52812;48.960;9.108;2023-04-10T06:41:03;7.20;99.90
3086;DHT22;52812;48.960;9.108;2023-04-10T06:43:29;7.70;99.90
3086;DHT22;52812;48.960;9.108;2023-04-10T06:45:56;8.30;99.90
3086;DHT22;52812;48.960;9.108;2023-04-10T06:48:22;8.90;99.90
3086;DHT22;52812;48.960;9.108;2023-04-10T06:50:47;9.40;99.90
3086;DHT22;52812;48.960;9.108;2023-04-10T06:53:13;9.50;99.90
3086;DHT22;52812;48.960;9.108;2023-04-10T06:55:38;9.60;99.90
3086;DHT22;52812;48.960;9.108;2023-04-10T06:58:04;9.80;99.90
3086;DHT22;52812;48.960;9.108;2023-04-10T07:00:29;10.00;99.90
3086;DHT22;52812;48.960;9.108;2023-04-10T07:02:55;10.40;99.90
3086;DHT22;52812;48.960;9.108;2023-04-10T07:05:21;11.30;99.90
3086;DHT22;52812;48.960;9.108;2023-04-10T07:07:46;11.30;99.90
3086;DHT22;52812;48.960;9.108;2023-04-10T07:10:12;11.70;99.90
3086;DHT22;52812;48.960;9.108;2023-04-10T07:12:37;11.90;99.90
3086;DHT22;52812;48.960;9.108;2023-04-10T07:15:03;11.90;99.90
3086;DHT22;52812;48.960;9.108;2023-04-10T07:17:29;12.10;99.90
3086;DHT22;52812;48.960;9.108;2023-04-10T07:19:55;12.40;99.90
3086;DHT22;52812;48.960;9.108;2023-04-10T07:22:20;12.50;99.90
3086;DHT22;52812;48.960;9.108;2023-04-10T07:24:46;12.40;99.90
3086;DHT22;52812;48.960;9.108;2023-04-10T07:27:12;12.60;99.90
3086;DHT22;52812;48.960;9.108;2023-04-10T07:29:38;12.60;99.90
3086;DHT22;52812;48.960;9.108;2023-04-10T07:32:03;12.70;99.90
3086;DHT22;52812;48.960;9.108;2023-04-10T07:34:30;12.90;99.90
3086;DHT22;52812;48.960;9.108;2023-04-10T07:36:56;12.70;99.90
3086;DHT22;52812;48.960;9.108;2023-04-10T07:39:21;12.90;99.90
3086;DHT22;52812;48.960;9.108;2023-04-10T07:41:47;13.20;99.90
3086;DHT22;52812;48.960;9.108;2023-04-10T07:44:12;13.20;99.90
3086;DHT22;52812;48.960;9.108;2023-04-10T07:46:39;13.40;99.90
3086;DHT22;52812;48.960;9.108;2023-04-10T07:49:05;13.50;99.90
3086;DHT22;52812;48.960;9.108;2023-04-10T07:51:30;13.40;99.90
3086;DHT22;52812;48.960;9.108;2023-04-10T07:53:56;13.50;99.90
3086;DHT22;52812;48.960;9.108;2023-04-10T07:56:22;13.50;99.90
3086;DHT22;52812;48.960;9.108;2023-04-10T07:58:48;13.60;99.90
3086;DHT22;52812;48.960;9.108;2023-04-10T08:01:14;13.80;99.90
3086;DHT22;52812;48.960;9.108;2023-04-10T08:03:41;13.80;99.90
3086;DHT22;52812;48.960;9.108;2023-04-10T08:06:08;14.10;99.90
3086;DHT22;52812;48.960;9.108;2023-04-10T08:08:38;14.00;99.90
3086;DHT22;52812;48.960;9.108;2023-04-10T08:11:22;13.70;99.90
3086;DHT22;52812;48.960;9.108;2023-04-10T08:13:49;13.50;99.90
3086;DHT22;52812;48.960;9.108;2023-04-10T08:16:17;13.80;99.90
3086;DHT22;52812;48.960;9.108;2023-04-10T08:18:43;14.00;99.90
3086;DHT22;52812;48.960;9.108;2023-04-10T08:21:08;14.10;99.90
3086;DHT22;52812;48.960;9.108;2023-04-10T08:23:34;14.00;99.90
3086;DHT22;52812;48.960;9.108;2023-04-10T08:26:00;13.70;99.90
3086;DHT22;52812;48.960;9.108;2023-04-10T08:28:25;13.60;99.90
3086;DHT22;52812;48.960;9.108;2023-04-10T08:30:54;13.50;99.90
3086;DHT22;52812;48.960;9.108;2023-04-10T08:33:20;13.60;99.90
3086;DHT22;52812;48.960;9.108;2023-04-10T08:35:48;13.60;99.90
3086;DHT22;52812;48.960;9.108;2023-04-10T08:38:14;13.40;99.90
3086;DHT22;52812;48.960;9.108;2023-04-10T08:40:39;13.30;99.90
3086;DHT22;52812;48.960;9.108;2023-04-10T08:43:05;13.10;99.90
3086;DHT22;52812;48.960;9.108;2023-04-10T08:45:30;13.10;99.90
3086;DHT22;52812;48.960;9.108;2023-04-10T08:47:57;13.10;99.90
3086;DHT22;52812;48.960;9.108;2023-04-10T08:50:27;13.20;99.90
3086;DHT22;52812;48.960;9.108;2023-04-10T08:52:55;13.50;99.90
3086;DHT22;52812;48.960;9.108;2023-04-10T08:55:28;13.60;99.90
3086;DHT22;52812;48.960;9.108;2023-04-10T08:57:54;13.80;99.90
3086;DHT22;52812;48.960;9.108;2023-04-10T09:00:20;13.70;99.90
3086;DHT22;52812;48.960;9.108;2023-04-10T09:02:45;13.70;99.90
3086;DHT22;52812;48.960;9.108;2023-04-10T09:05:11;13.60;99.90
3086;DHT22;52812;48.960;9.108;2023-04-10T09:07:37;13.80;99.90
3086;DHT22;52812;48.960;9.108;2023-04-10T09:10:05;13.80;99.90
3086;DHT22;52812;48.960;9.108;2023-04-10T09:12:42;13.90;99.90
3086;DHT22;52812;48.960;9.108;2023-04-10T09:15:09;13.90;99.90
3086;DHT22;52812;48.960;9.108;2023-04-10T09:17:34;14.10;99.90
3086;DHT22;52812;48.960;9.108;2023-04-10T09:20:00;14.40;99.90
3086;DHT22;52812;48.960;9.108;2023-04-10T09:22:31;14.40;99.90
3086;DHT22;52812;48.960;9.108;2023-04-10T09:24:58;14.10;99.90
3086;DHT22;52812;48.960;9.108;2023-04-10T09:27:31;14.40;99.90
3086;DHT22;52812;48.960;9.108;2023-04-10T09:29:58;14.70;99.90
3086;DHT22;52812;48.960;9.108;2023-04-10T09:32:44;14.70;99.90
3086;DHT22;52812;48.960;9.108;2023-04-10T09:35:12;14.90;99.90
3086;DHT22;52812;48.960;9.108;2023-04-10T09:37:38;15.20;99.90
3086;DHT22;52812;48.960;9.108;2023-04-10T09:40:21;15.20;99.90
3086;DHT22;52812;48.960;9.108;2023-04-10T09:42:48;15.30;99.90
3086;DHT22;52812;48.960;9.108;2023-04-10T09:45:14;15.50;99.90
3086;DHT22;52812;48.960;9.108;2023-04-10T09:48:03;15.50;99.90
3086;DHT22;52812;48.960;9.108;2023-04-10T09:50:36;15.50;99.90
3086;DHT22;52812;48.960;9.108;2023-04-10T09:53:02;15.70;99.90
3086;DHT22;52812;48.960;9.108;2023-04-10T09:55:28;15.60;99.90
3086;DHT22;52812;48.960;9.108;2023-04-10T09:57:57;15.50;99.90
3086;DHT22;52812;48.960;9.108;2023-04-10T10:00:23;15.60;99.90
3086;DHT22;52812;48.960;9.108;2023-04-10T10:02:50;15.60;99.90
3086;DHT22;52812;48.960;9.108;2023-04-10T10:05:16;15.60;99.90
3086;DHT22;52812;48.960;9.108;2023-04-10T10:07:43;15.60;99.90
3086;DHT22;52812;48.960;9.108;2023-04-10T10:10:11;15.60;99.90
3086;DHT22;52812;48.960;9.108;2023-04-10T10:12:43;15.90;99.90
3086;DHT22;52812;48.960;9.108;2023-04-10T10:18:16;15.80;99.90
3086;DHT22;52812;48.960;9.108;2023-04-10T10:20:45;15.70;99.90
3086;DHT22;52812;48.960;9.108;2023-04-10T10:23:12;15.90;99.90
3086;DHT22;52812;48.960;9.108;2023-04-10T10:25:38;15.70;99.90
3086;DHT22;52812;48.960;9.108;2023-04-10T10:28:04;15.90;99.80
3086;DHT22;52812;48.960;9.108;2023-04-10T10:30:33;16.00;99.90
3086;DHT22;52812;48.960;9.108;2023-04-10T10:33:01;16.10;99.90
3086;DHT22;52812;48.960;9.108;2023-04-10T10:35:30;16.30;99.90
3086;DHT22;52812;48.960;9.108;2023-04-10T10:37:58;16.40;98.30
3086;DHT22;52812;48.960;9.108;2023-04-10T10:40:34;16.30;99.50
3086;DHT22;52812;48.960;9.108;2023-04-10T10:43:23;16.40;99.60
3086;DHT22;52812;48.960;9.108;2023-04-10T10:46:23;16.70;99.90
3086;DHT22;52812;48.960;9.108;2023-04-10T10:48:57;16.90;99.30
3086;DHT22;52812;48.960;9.108;2023-04-10T10:51:22;16.90;97.10
3086;DHT22;52812;48.960;9.108;2023-04-10T10:53:48;17.00;98.40
3086;DHT22;52812;48.960;9.108;2023-04-10T10:58:51;17.00;98.60
3086;DHT22;52812;48.960;9.108;2023-04-10T11:01:17;17.00;98.10
3086;DHT22;52812;48.960;9.108;2023-04-10T11:03:44;17.20;98.40
3086;DHT22;52812;48.960;9.108;2023-04-10T11:06:18;17.20;97.80
3086;DHT22;52812;48.960;9.108;2023-04-10T11:08:49;17.10;97.90
3086;DHT22;52812;48.960;9.108;2023-04-10T11:11:20;17.00;96.40
3086;DHT22;52812;48.960;9.108;2023-04-10T11:19:06;16.80;95.10
3086;DHT22;52812;48.960;9.108;2023-04-10T11:21:33;16.90;97.80
3086;DHT22;52812;48.960;9.108;2023-04-10T11:31:37;16.70;96.60
3086;DHT22;52812;48.960;9.108;2023-04-10T11:34:04;16.70;96.80
3086;DHT22;52812;48.960;9.108;2023-04-10T11:36:31;16.90;96.50
3086;DHT22;52812;48.960;9.108;2023-04-10T11:39:02;16.80;95.70
3086;DHT22;52812;48.960;9.108;2023-04-10T11:41:58;16.80;95.70
3086;DHT22;52812;48.960;9.108;2023-04-10T11:44:30;16.80;95.70
3086;DHT22;52812;48.960;9.108;2023-04-10T11:46:56;17.00;96.20
3086;DHT22;52812;48.960;9.108;2023-04-10T11:49:40;16.90;96.00
3086;DHT22;52812;48.960;9.108;2023-04-10T11:52:06;17.00;96.10
3086;DHT22;52812;48.960;9.108;2023-04-10T11:54:31;16.90;95.00
3086;DHT22;52812;48.960;9.108;2023-04-10T11:57:04;17.00;95.10
3086;DHT22;52812;48.960;9.108;2023-04-10T11:59:31;17.00;94.20
3086;DHT22;52812;48.960;9.108;2023-04-10T12:02:23;16.90;94.60
3086;DHT22;52812;48.960;9.108;2023-04-10T12:04:57;17.00;92.60
3086;DHT22;52812;48.960;9.108;2023-04-10T12:07:23;16.90;92.40
3086;DHT22;52812;48.960;9.108;2023-04-10T12:09:59;17.00;90.70
3086;DHT22;52812;48.960;9.108;2023-04-10T12:12:36;17.10;90.90
3086;DHT22;52812;48.960;9.108;2023-04-10T12:15:02;17.10;93.70
3086;DHT22;52812;48.960;9.108;2023-04-10T12:17:28;17.20;91.20
3086;DHT22;52812;48.960;9.108;2023-04-10T12:19:55;17.30;91.80
3086;DHT22;52812;48.960;9.108;2023-04-10T12:22:22;17.40;93.50
3086;DHT22;52812;48.960;9.108;2023-04-10T12:24:49;17.50;90.60
3086;DHT22;52812;48.960;9.108;2023-04-10T12:29:45;17.50;88.40
3086;DHT22;52812;48.960;9.108;2023-04-10T12:32:11;17.40;91.10
3086;DHT22;52812;48.960;9.108;2023-04-10T12:34:37;17.60;90.40
3086;DHT22;52812;48.960;9.108;2023-04-10T12:37:03;17.60;88.00
3086;DHT22;52812;48.960;9.108;2023-04-10T12:39:28;17.70;86.50
3086;DHT22;52812;48.960;9.108;2023-04-10T12:42:18;17.70;87.60
3086;DHT22;52812;48.960;9.108;2023-04-10T12:44:59;17.90;85.10
3086;DHT22;52812;48.960;9.108;2023-04-10T12:47:28;17.80;85.40
3086;DHT22;52812;48.960;9.108;2023-04-10T12:50:10;17.90;85.20
3086;DHT22;52812;48.960;9.108;2023-04-10T12:52:38;18.10;83.10
3086;DHT22;52812;48.960;9.108;2023-04-10T12:57:38;18.30;82.40
3086;DHT22;52812;48.960;9.108;2023-04-10T13:00:05;18.30;88.30
3086;DHT22;52812;48.960;9.108;2023-04-10T13:02:31;18.30;88.20
3086;DHT22;52812;48.960;9.108;2023-04-10T13:04:56;18.50;85.10
3086;DHT22;52812;48.960;9.108;2023-04-10T13:07:23;18.60;83.60
3086;DHT22;52812;48.960;9.108;2023-04-10T13:09:49;18.50;83.20
3086;DHT22;52812;48.960;9.108;2023-04-10T13:12:14;18.50;80.90
3086;DHT22;52812;48.960;9.108;2023-04-10T13:14:40;18.50;84.10
3086;DHT22;52812;48.960;9.108;2023-04-10T13:17:06;18.70;81.90
3086;DHT22;52812;48.960;9.108;2023-04-10T13:19:32;18.80;81.10
3086;DHT22;52812;48.960;9.108;2023-04-10T13:21:57;18.90;81.80
3086;DHT22;52812;48.960;9.108;2023-04-10T13:24:25;18.80;78.70
3086;DHT22;52812;48.960;9.108;2023-04-10T13:26:51;18.70;75.60
3086;DHT22;52812;48.960;9.108;2023-04-10T13:29:17;18.70;76.20
3086;DHT22;52812;48.960;9.108;2023-04-10T13:31:42;18.90;77.90
3086;DHT22;52812;48.960;9.108;2023-04-10T13:34:08;19.00;72.50
3086;DHT22;52812;48.960;9.108;2023-04-10T13:36:34;19.00;72.60
3086;DHT22;52812;48.960;9.108;2023-04-10T13:38:59;19.00;73.00
3086;DHT22;52812;48.960;9.108;2023-04-10T13:41:25;19.00;77.10
3086;DHT22;52812;48.960;9.108;2023-04-10T13:43:51;19.00;76.30
3086;DHT22;52812;48.960;9.108;2023-04-10T13:46:16;18.90;76.20
3086;DHT22;52812;48.960;9.108;2023-04-10T13:48:42;18.80;74.70
3086;DHT22;52812;48.960;9.108;2023-04-10T13:51:08;18.70;79.00
3086;DHT22;52812;48.960;9.108;2023-04-10T13:53:34;18.80;78.80
3086;DHT22;52812;48.960;9.108;2023-04-10T13:55:59;18.80;77.40
3086;DHT22;52812;48.960;9.108;2023-04-10T13:58:25;18.80;75.00
3086;DHT22;52812;48.960;9.108;2023-04-10T14:00:53;18.80;73.00
3086;DHT22;52812;48.960;9.108;2023-04-10T14:03:18;18.80;77.00
3086;DHT22;52812;48.960;9.108;2023-04-10T14:05:44;18.80;74.40
3086;DHT22;52812;48.960;9.108;2023-04-10T14:08:10;18.80;79.60
3086;DHT22;52812;48.960;9.108;2023-04-10T14:10:39;18.90;74.30
3086;DHT22;52812;48.960;9.108;2023-04-10T14:13:05;18.70;78.60
3086;DHT22;52812;48.960;9.108;2023-04-10T14:15:32;18.80;77.40
3086;DHT22;52812;48.960;9.108;2023-04-10T14:17:58;18.70;75.60
3086;DHT22;52812;48.960;9.108;2023-04-10T14:20:24;18.80;75.50
3086;DHT22;52812;48.960;9.108;2023-04-10T14:22:49;18.80;76.40
3086;DHT22;52812;48.960;9.108;2023-04-10T14:25:15;18.90;76.90
3086;DHT22;52812;48.960;9.108;2023-04-10T14:27:44;18.90;73.90
3086;DHT22;52812;48.960;9.108;2023-04-10T14:30:10;18.90;76.90
3086;DHT22;52812;48.960;9.108;2023-04-10T14:32:39;18.90;78.50
3086;DHT22;52812;48.960;9.108;2023-04-10T14:35:06;18.90;77.20
3086;DHT22;52812;48.960;9.108;2023-04-10T14:37:32;18.90;77.00
3086;DHT22;52812;48.960;9.108;2023-04-10T14:39:57;18.80;76.30
3086;DHT22;52812;48.960;9.108;2023-04-10T14:42:23;18.80;73.80
3086;DHT22;52812;48.960;9.108;2023-04-10T14:44:49;18.60;75.80
3086;DHT22;52812;48.960;9.108;2023-04-10T14:47:14;18.60;75.70
3086;DHT22;52812;48.960;9.108;2023-04-10T14:49:41;18.60;79.40
3086;DHT22;52812;48.960;9.108;2023-04-10T14:52:06;18.60;78.60
3086;DHT22;52812;48.960;9.108;2023-04-10T14:54:32;18.60;79.20
3086;DHT22;52812;48.960;9.108;2023-04-10T14:56:58;18.50;78.90
3086;DHT22;52812;48.960;9.108;2023-04-10T14:59:24;18.50;77.90
3086;DHT22;52812;48.960;9.108;2023-04-10T15:01:49;18.60;75.00
3086;DHT22;52812;48.960;9.108;2023-04-10T15:04:15;18.60;78.70
3086;DHT22;52812;48.960;9.108;2023-04-10T15:06:41;18.60;79.40
3086;DHT22;52812;48.960;9.108;2023-04-10T15:09:07;18.40;79.00
3086;DHT22;52812;48.960;9.108;2023-04-10T15:11:32;18.40;78.70
3086;DHT22;52812;48.960;9.108;2023-04-10T15:13:58;18.40;78.50
3086;DHT22;52812;48.960;9.108;2023-04-10T15:16:24;18.30;79.60
3086;DHT22;52812;48.960;9.108;2023-04-10T15:18:50;18.20;79.80
3086;DHT22;52812;48.960;9.108;2023-04-10T15:21:16;18.10;79.10
3086;DHT22;52812;48.960;9.108;2023-04-10T15:23:42;18.10;78.90
3086;DHT22;52812;48.960;9.108;2023-04-10T15:26:11;18.00;81.70
3086;DHT22;52812;48.960;9.108;2023-04-10T15:28:38;18.00;80.60
3086;DHT22;52812;48.960;9.108;2023-04-10T15:31:04;17.90;78.00
3086;DHT22;52812;48.960;9.108;2023-04-10T15:33:30;17.90;78.50
3086;DHT22;52812;48.960;9.108;2023-04-10T15:35:56;17.80;78.00
3086;DHT22;52812;48.960;9.108;2023-04-10T15:38:22;17.80;77.90
3086;DHT22;52812;48.960;9.108;2023-04-10T15:40:50;17.80;78.70
3086;DHT22;52812;48.960;9.108;2023-04-10T15:43:16;17.80;80.60
3086;DHT22;52812;48.960;9.108;2023-04-10T15:45:42;17.80;77.90
3086;DHT22;52812;48.960;9.108;2023-04-10T15:48:08;17.70;79.70
3086;DHT22;52812;48.960;9.108;2023-04-10T15:50:36;17.70;79.40
3086;DHT22;52812;48.960;9.108;2023-04-10T15:53:01;17.70;81.20
3086;DHT22;52812;48.960;9.108;2023-04-10T15:55:27;17.80;78.40
3086;DHT22;52812;48.960;9.108;2023-04-10T15:57:53;17.80;79.20
3086;DHT22;52812;48.960;9.108;2023-04-10T16:00:19;17.80;80.50
3086;DHT22;52812;48.960;9.108;2023-04-10T16:02:45;17.80;81.90
3086;DHT22;52812;48.960;9.108;2023-04-10T16:05:10;17.70;78.90
3086;DHT22;52812;48.960;9.108;2023-04-10T16:07:36;17.70;78.90
3086;DHT22;52812;48.960;9.108;2023-04-10T16:10:06;17.60;83.90
3086;DHT22;52812;48.960;9.108;2023-04-10T16:12:33;17.60;82.40
3086;DHT22;52812;48.960;9.108;2023-04-10T16:14:59;17.60;83.10
3086;DHT22;52812;48.960;9.108;2023-04-10T16:17:25;17.60;79.20
3086;DHT22;52812;48.960;9.108;2023-04-10T16:19:50;17.60;82.40
3086;DHT22;52812;48.960;9.108;2023-04-10T16:22:16;17.50;83.10